Time;durP1;ratioP1;P1;durP2;ratioP2;P2;SDS_P1;SDS_P2;PMS_P1;PMS_P2;Temp;Humidity;BMP_temperature;BMP_pressure;BME280_temperature;BME280_humidity;BME280_pressure;Samples;Min_cycle;Max_cycle;Signal;HPM_P1;HPM_P2
2022/01/05 00:00:23;;;;;;;16.60;10.40;;;;;;;5.53;85.87;97789.92;207430;1321;141401;-71
2022/01/05 00:05:43;;;;;;;20.30;12.40;;;;;;;5.47;85.74;97800.19;207208;1315;140346;-69
2022/01/05 00:10:46;;;;;;;19.00;12.10;;;;;;;5.45;86.14;97810.48;207297;1316;141207;-73
2022/01/05 00:15:53;;;;;;;15.20;10.90;;;;;;;5.47;85.96;97815.09;207750;1315;140413;-75
2022/01/05 00:20:57;;;;;;;22.40;13.90;;;;;;;5.47;85.61;97816.09;206726;1317;151707;-73
2022/01/05 00:26:03;;;;;;;17.90;12.10;;;;;;;5.43;86.04;97816.42;207045;1320;139852;-72
2022/01/05 00:31:06;;;;;;;23.30;14.50;;;;;;;5.40;86.04;97816.07;208413;1316;140954;-76
2022/01/05 00:36:09;;;;;;;23.00;13.10;;;;;;;5.44;86.00;97828.05;206936;1320;141684;-71
2022/01/05 00:41:13;;;;;;;23.10;13.80;;;;;;;5.45;86.11;97825.95;207386;1317;141471;-71
2022/01/05 00:46:18;;;;;;;24.60;14.40;;;;;;;5.40;86.12;97820.98;207905;1316;144024;-72
2022/01/05 00:51:30;;;;;;;25.80;17.30;;;;;;;5.36;86.17;97820.63;206642;1320;142995;-74
2022/01/05 00:56:34;;;;;;;20.90;13.00;;;;;;;5.36;86.15;97824.04;208906;1318;141965;-73
2022/01/05 01:01:38;;;;;;;21.20;14.50;;;;;;;5.36;86.25;97828.60;208691;1316;140906;-72
2022/01/05 01:06:48;;;;;;;19.10;13.50;;;;;;;5.39;86.38;97838.83;209342;1317;141588;-71
2022/01/05 01:11:51;;;;;;;21.80;14.40;;;;;;;5.41;86.38;97847.48;208126;1316;141050;-78
2022/01/05 01:16:56;;;;;;;20.80;13.30;;;;;;;5.43;86.25;97857.85;208147;1317;141245;-79
2022/01/05 01:22:02;;;;;;;17.20;13.60;;;;;;;5.47;86.39;97867.89;208713;1316;141293;-72
2022/01/05 01:27:06;;;;;;;20.50;13.40;;;;;;;5.49;86.16;97864.85;207657;1316;141508;-80
2022/01/05 01:32:09;;;;;;;15.20;9.80;;;;;;;5.53;86.37;97871.27;206943;1316;141303;-79
2022/01/05 01:37:12;;;;;;;13.70;11.30;;;;;;;5.53;86.49;97870.94;208304;1316;141377;-78
2022/01/05 01:42:21;;;;;;;15.30;11.90;;;;;;;5.56;86.68;97878.23;207932;1316;140950;-70
2022/01/05 01:47:28;;;;;;;20.70;11.20;;;;;;;5.58;86.77;97876.72;208017;1316;140033;-68
2022/01/05 01:52:31;;;;;;;18.00;11.80;;;;;;;5.56;86.60;97873.68;207927;1317;139932;-73
2022/01/05 01:57:58;;;;;;;11.90;9.90;;;;;;;5.54;86.30;97867.27;208004;1317;142734;-76
2022/01/05 02:03:14;;;;;;;11.90;8.90;;;;;;;5.56;86.15;97868.08;207483;1315;140135;-71
2022/01/05 02:08:18;;;;;;;13.00;9.60;;;;;;;5.53;86.34;97876.70;207548;1319;140500;-71
2022/01/05 02:13:20;;;;;;;12.90;8.10;;;;;;;5.55;86.52;97884.93;207597;1316;140934;-76
2022/01/05 02:23:34;;;;;;;12.80;9.20;;;;;;;5.58;86.18;97905.80;206986;1316;141907;-71
2022/01/05 02:28:39;;;;;;;13.60;9.50;;;;;;;5.54;86.75;97917.10;206834;1316;140890;-73
2022/01/05 02:33:50;;;;;;;14.70;12.00;;;;;;;5.53;86.40;97926.35;207211;1316;140441;-71
2022/01/05 02:38:55;;;;;;;10.50;9.10;;;;;;;5.55;86.46;97923.77;207772;1316;140427;-72
2022/01/05 02:43:58;;;;;;;12.60;7.30;;;;;;;5.54;86.47;97921.76;207642;1316;142094;-70
2022/01/05 02:49:08;;;;;;;11.00;8.30;;;;;;;5.50;86.46;97917.49;207974;1316;140913;-70
2022/01/05 02:54:20;;;;;;;8.70;6.70;;;;;;;5.51;86.54;97908.56;207134;1316;140175;-71
2022/01/05 02:59:28;;;;;;;9.30;7.90;;;;;;;5.55;86.55;97902.68;207551;1316;140872;-70
2022/01/05 03:04:33;;;;;;;11.40;7.50;;;;;;;5.57;86.51;97891.55;208784;1316;142042;-75
2022/01/05 03:10:04;;;;;;;12.00;8.90;;;;;;;5.61;86.36;97897.63;208112;1316;139814;-67
2022/01/05 03:15:08;;;;;;;8.50;7.10;;;;;;;5.58;86.27;97909.97;209458;1316;141084;-72
2022/01/05 03:20:13;;;;;;;7.20;5.90;;;;;;;5.60;86.41;97916.18;207831;1316;141230;-71
2022/01/05 03:25:20;;;;;;;12.30;8.20;;;;;;;5.62;86.38;97921.70;209229;1317;140844;-72
2022/01/05 03:30:34;;;;;;;10.00;9.00;;;;;;;5.57;85.97;97922.16;208620;1319;141653;-71
2022/01/05 03:35:44;;;;;;;17.80;16.00;;;;;;;5.56;86.23;97911.42;208244;1315;140226;-69
2022/01/05 03:40:48;;;;;;;10.70;8.00;;;;;;;5.58;86.33;97901.77;207525;1316;140158;-71
2022/01/05 03:45:53;;;;;;;11.40;8.10;;;;;;;5.62;86.12;97897.38;207325;1316;143702;-68
2022/01/05 03:50:59;;;;;;;11.90;9.70;;;;;;;5.60;86.36;97894.34;207159;1316;140664;-72
2022/01/05 03:56:05;;;;;;;13.20;9.90;;;;;;;5.54;86.20;97899.13;208093;1317;141219;-70
2022/01/05 04:01:08;;;;;;;8.10;6.70;;;;;;;5.56;86.50;97910.58;207034;1318;141669;-69
2022/01/05 04:06:12;;;;;;;10.10;7.50;;;;;;;5.55;86.24;97924.83;208064;1317;140662;-69
2022/01/05 04:11:15;;;;;;;8.80;7.30;;;;;;;5.53;85.76;97913.77;207873;1317;139759;-69
2022/01/05 04:16:17;;;;;;;9.30;7.50;;;;;;;5.51;86.38;97903.75;207103;1316;139471;-68
2022/01/05 04:21:22;;;;;;;12.50;9.50;;;;;;;5.49;86.40;97902.00;208102;1315;141699;-70
2022/01/05 04:26:25;;;;;;;12.00;10.70;;;;;;;5.43;86.04;97906.37;207697;1316;140907;-70
2022/01/05 04:31:31;;;;;;;8.50;7.60;;;;;;;5.41;86.12;97890.91;208299;1315;141186;-69
2022/01/05 04:36:35;;;;;;;9.80;8.20;;;;;;;5.39;86.01;97892.16;208602;1316;140147;-67
2022/01/05 04:41:38;;;;;;;8.90;8.00;;;;;;;5.34;86.02;97886.64;207197;1316;142482;-68
2022/01/05 04:46:40;;;;;;;10.40;7.60;;;;;;;5.30;86.07;97864.14;207550;1316;140532;-68
2022/01/05 04:51:43;;;;;;;9.10;7.80;;;;;;;5.29;86.20;97884.73;207830;1316;141630;-70
2022/01/05 04:56:48;;;;;;;12.40;8.20;;;;;;;5.31;86.19;97904.48;207275;1316;141012;-69
2022/01/05 05:01:56;;;;;;;10.20;7.50;;;;;;;5.34;86.17;97923.79;207531;1316;141608;-69
2022/01/05 05:07:00;;;;;;;8.90;6.80;;;;;;;5.34;86.10;97913.75;207761;1316;140937;-68
2022/01/05 05:12:04;;;;;;;7.30;6.30;;;;;;;5.29;86.36;97914.74;207221;1318;142610;-67
2022/01/05 05:17:07;;;;;;;9.60;7.80;;;;;;;5.27;86.01;97924.22;207243;1316;142194;-69
2022/01/05 05:22:13;;;;;;;12.20;7.00;;;;;;;5.22;86.05;97919.19;208925;1319;140689;-69
2022/01/05 05:27:16;;;;;;;10.20;7.40;;;;;;;5.23;86.28;97935.48;208140;1317;142117;-70
2022/01/05 05:32:20;;;;;;;7.50;6.50;;;;;;;5.24;86.22;97930.04;208531;1315;140368;-70
2022/01/05 05:37:23;;;;;;;10.10;6.80;;;;;;;5.22;86.06;97923.84;207432;1316;140036;-69
2022/01/05 05:42:26;;;;;;;11.80;8.50;;;;;;;5.21;86.10;97926.09;208966;1316;140541;-69
2022/01/05 05:47:28;;;;;;;9.20;6.40;;;;;;;5.21;86.35;97929.42;207263;1316;141196;-70
2022/01/05 05:52:35;;;;;;;9.60;7.00;;;;;;;5.21;86.16;97938.19;203419;1316;5755500;-70
2022/01/05 05:57:43;;;;;;;10.50;6.90;;;;;;;5.20;86.03;97934.55;207027;1316;141364;-67
2022/01/05 06:02:46;;;;;;;9.60;7.10;;;;;;;5.20;86.36;97940.25;208507;1316;140683;-69
2022/01/05 06:07:49;;;;;;;10.80;7.10;;;;;;;5.23;86.20;97937.05;207868;1317;139918;-67
2022/01/05 06:13:01;;;;;;;11.60;7.10;;;;;;;5.26;86.09;97935.14;207394;1316;141590;-68
2022/01/05 06:18:10;;;;;;;12.30;9.40;;;;;;;5.27;85.95;97945.98;208023;1316;140643;-69
2022/01/05 06:23:24;;;;;;;9.40;7.10;;;;;;;5.24;86.20;97956.73;207143;1316;141584;-68
2022/01/05 06:28:31;;;;;;;11.30;7.80;;;;;;;5.22;86.45;97973.54;207270;1316;139485;-69
2022/01/05 06:33:35;;;;;;;9.00;7.50;;;;;;;5.22;86.21;97987.34;207657;1317;140457;-67
2022/01/05 06:38:39;;;;;;;12.60;8.20;;;;;;;5.24;86.15;97969.08;207604;1315;139868;-70
2022/01/05 06:43:45;;;;;;;15.20;9.50;;;;;;;5.27;86.51;97967.43;206825;1316;142690;-69
2022/01/05 06:48:49;;;;;;;10.70;8.50;;;;;;;5.29;86.10;97962.98;207396;1316;141324;-69
2022/01/05 06:53:55;;;;;;;11.70;8.50;;;;;;;5.29;86.21;97964.56;206847;1315;141728;-69
2022/01/05 06:58:58;;;;;;;13.60;9.80;;;;;;;5.29;85.91;97969.20;207065;1315;140240;-70
2022/01/05 07:04:02;;;;;;;13.50;9.40;;;;;;;5.29;86.30;97967.98;207614;1316;141174;-68
2022/01/05 07:09:10;;;;;;;10.60;9.40;;;;;;;5.27;86.19;97977.05;207554;1316;140702;-69
2022/01/05 07:14:14;;;;;;;18.40;10.20;;;;;;;5.23;86.26;97966.59;208792;1314;141142;-70
2022/01/05 07:19:20;;;;;;;14.90;10.10;;;;;;;5.23;86.15;97960.58;208976;1318;141392;-68
2022/01/05 07:24:23;;;;;;;17.40;10.70;;;;;;;5.23;86.07;97973.78;207816;1318;141252;-70
2022/01/05 07:29:27;;;;;;;20.90;12.40;;;;;;;5.25;86.00;97968.16;208361;1319;142194;-71
2022/01/05 07:34:30;;;;;;;20.50;11.70;;;;;;;5.28;85.68;97964.55;209181;1317;141323;-71
2022/01/05 07:39:38;;;;;;;16.80;12.00;;;;;;;5.27;85.70;97964.38;209213;1316;140201;-70
2022/01/05 07:44:44;;;;;;;15.70;9.90;;;;;;;5.30;85.48;97961.05;208824;1316;141327;-69
2022/01/05 07:49:47;;;;;;;15.10;9.70;;;;;;;5.34;85.70;97957.24;209217;1313;140724;-69
2022/01/05 07:55:01;;;;;;;14.40;10.20;;;;;;;5.42;85.77;97947.48;208326;1316;140989;-69
2022/01/05 08:00:07;;;;;;;16.60;9.70;;;;;;;5.51;85.84;97951.21;208292;1316;141029;-71
2022/01/05 08:05:09;;;;;;;18.00;9.60;;;;;;;5.55;85.68;97955.85;208521;1312;140571;-71
2022/01/05 08:10:12;;;;;;;18.20;12.70;;;;;;;5.55;85.74;97955.02;207417;1317;140629;-70
2022/01/05 08:15:15;;;;;;;15.90;11.40;;;;;;;5.55;85.83;97958.93;207994;1316;141290;-71
2022/01/05 08:20:18;;;;;;;18.20;12.10;;;;;;;5.57;85.83;97952.77;207613;1316;141864;-71
2022/01/05 08:25:21;;;;;;;18.20;12.40;;;;;;;5.57;85.67;97949.61;206799;1313;144022;-66
2022/01/05 08:30:25;;;;;;;20.30;11.00;;;;;;;5.59;85.79;97951.05;207693;1316;141577;-69
2022/01/05 08:35:32;;;;;;;16.50;10.40;;;;;;;5.63;85.84;97954.81;206897;1315;142703;-69
2022/01/05 08:40:38;;;;;;;15.80;9.90;;;;;;;5.68;85.55;97948.46;206796;1317;140865;-68
2022/01/05 08:45:43;;;;;;;17.90;12.30;;;;;;;5.67;85.97;97948.77;206680;1315;141132;-68
2022/01/05 08:50:52;;;;;;;13.70;10.80;;;;;;;5.64;85.79;97948.27;207405;1318;140598;-69
2022/01/05 08:55:54;;;;;;;25.50;10.40;;;;;;;5.66;85.95;97949.56;207678;1316;143178;-69
2022/01/05 09:01:05;;;;;;;18.50;11.30;;;;;;;5.73;86.17;97945.48;207341;1316;140400;-66
2022/01/05 09:06:09;;;;;;;15.90;11.20;;;;;;;5.81;85.66;97951.56;207303;1317;141266;-69
2022/01/05 09:11:19;;;;;;;14.50;10.70;;;;;;;5.86;85.68;97949.20;206905;1316;141682;-67
2022/01/05 09:16:38;;;;;;;19.50;11.30;;;;;;;5.88;85.69;97948.33;207729;1317;248945;-68
2022/01/05 09:21:49;;;;;;;21.00;12.80;;;;;;;5.87;85.81;97945.29;207091;1315;141227;-70
2022/01/05 09:27:17;;;;;;;20.80;17.80;;;;;;;5.84;85.58;97950.91;207647;1316;141124;-70
2022/01/05 09:32:35;;;;;;;;;;;;;;;;;;;;;
2022/01/05 09:37:53;;;;;;;23.80;17.90;;;;;;;5.81;85.11;97953.54;209001;1316;140991;-73
2022/01/05 09:43:08;;;;;;;;;;;;;;;;;;;;;
2022/01/05 09:49:09;;;;;;;22.90;16.20;;;;;;;5.70;85.30;97949.83;209571;1318;127259;-71
2022/01/05 09:54:14;;;;;;;21.60;15.40;;;;;;;5.67;85.71;97943.33;207887;1318;142509;-68
2022/01/05 09:59:34;;;;;;;19.20;13.90;;;;;;;5.64;85.54;97945.73;207348;1318;140379;-69
2022/01/05 10:04:40;;;;;;;18.10;11.60;;;;;;;5.66;85.57;97946.28;208053;1315;141286;-71
2022/01/05 10:09:49;;;;;;;18.20;12.30;;;;;;;5.65;85.23;97943.14;207906;1318;141286;-69
2022/01/05 10:14:58;;;;;;;19.60;13.90;;;;;;;5.66;85.65;97942.73;208147;1316;140490;-70
2022/01/05 10:20:10;;;;;;;15.10;12.10;;;;;;;5.68;86.01;97936.84;207352;1313;141456;-69
2022/01/05 10:25:17;;;;;;;20.80;10.20;;;;;;;5.70;85.42;97934.48;207197;1316;143075;-70
2022/01/05 10:30:21;;;;;;;;;;;;;;;5.72;85.87;97936.27;207040;1316;141888;-69
2022/01/05 10:35:26;;;;;;;20.40;12.90;;;;;;;5.72;85.94;97929.86;207826;1313;128085;-68
2022/01/05 10:40:35;;;;;;;11.50;9.10;;;;;;;5.71;85.79;97930.06;206834;1318;143014;-69
2022/01/05 10:46:01;;;;;;;19.90;15.30;;;;;;;5.73;86.05;97931.73;207250;1315;142054;-71
2022/01/05 10:51:08;;;;;;;10.20;6.90;;;;;;;5.79;85.82;97937.50;207873;1316;141242;-70
2022/01/05 10:56:26;;;;;;;11.60;9.00;;;;;;;5.78;85.95;97957.27;207013;1316;141280;-69
2022/01/05 11:01:33;;;;;;;12.50;9.10;;;;;;;5.72;85.82;97955.83;207225;1317;141164;-70
2022/01/05 11:07:03;;;;;;;;;;;;;;;;;;;;;
2022/01/05 11:12:11;;;;;;;9.10;7.50;;;;;;;5.61;85.97;97934.70;208248;1318;126573;-70
2022/01/05 11:17:17;;;;;;;8.10;7.00;;;;;;;5.61;86.30;97934.05;207570;1314;142269;-70
2022/01/05 11:22:32;;;;;;;9.30;6.80;;;;;;;5.65;86.01;97936.17;207213;1316;145807;-70
2022/01/05 11:27:39;;;;;;;13.00;7.50;;;;;;;5.67;85.96;97934.50;206919;1318;140449;-70
2022/01/05 11:32:42;;;;;;;8.80;7.00;;;;;;;5.69;86.41;97943.95;207602;1317;140855;-69
2022/01/05 11:37:46;;;;;;;13.70;8.40;;;;;;;5.65;86.16;97943.36;207590;1318;140423;-71
2022/01/05 11:43:17;;;;;;;8.80;7.40;;;;;;;5.60;85.92;97938.80;208863;1318;141857;-70
2022/01/05 11:48:33;;;;;;;11.40;7.60;;;;;;;5.58;85.98;97927.25;209401;1319;141152;-72
2022/01/05 11:53:44;;;;;;;11.20;8.80;;;;;;;5.58;86.08;97923.81;207912;1316;142346;-71
2022/01/05 11:59:16;;;;;;;5.10;4.10;;;;;;;5.57;85.66;97935.63;208146;1314;140904;-71
2022/01/05 12:04:20;;;;;;;5.50;4.00;;;;;;;5.42;85.01;97956.83;208996;1317;141484;-73
2022/01/05 12:09:49;;;;;;;6.10;4.80;;;;;;;5.23;84.63;97974.63;208401;1317;140579;-70
2022/01/05 12:14:55;;;;;;;4.10;3.70;;;;;;;5.00;84.27;97966.21;206232;1321;140366;-69
2022/01/05 12:20:03;;;;;;;4.90;4.30;;;;;;;4.83;84.33;97963.23;206747;1321;220658;-72
2022/01/05 12:25:12;;;;;;;6.20;2.80;;;;;;;4.73;84.30;97975.41;206652;1320;141745;-71
2022/01/05 12:30:22;;;;;;;4.30;2.70;;;;;;;4.61;84.17;97996.70;206424;1321;140976;-71
2022/01/05 12:35:28;;;;;;;4.10;2.70;;;;;;;4.53;84.29;97996.24;206460;1321;140713;-72
2022/01/05 12:41:42;;;;;;;8.90;8.00;;;;;;;4.45;84.34;98010.41;207071;1320;140550;-74
2022/01/05 12:46:57;;;;;;;;;;;;;;;;;;;;;
2022/01/05 12:52:16;;;;;;;6.00;4.70;;;;;;;4.30;84.32;98009.52;206591;1318;140950;-70
2022/01/05 12:57:32;;;;;;;6.00;3.50;;;;;;;4.24;84.54;98028.50;207466;1316;151500;-69
2022/01/05 13:02:42;;;;;;;4.60;3.10;;;;;;;4.17;84.39;98023.57;206846;1316;140491;-69
2022/01/05 13:07:45;;;;;;;9.00;4.80;;;;;;;4.15;84.60;98043.93;208031;1316;139986;-70
2022/01/05 13:12:51;;;;;;;4.40;3.90;;;;;;;4.09;84.50;98041.60;206749;1316;140165;-68
2022/01/05 13:17:55;;;;;;;4.70;3.10;;;;;;;4.10;84.91;98043.67;206638;1316;140075;-69
2022/01/05 13:23:21;;;;;;;4.80;3.90;;;;;;;4.04;84.53;98057.90;206754;1318;141384;-69
2022/01/05 13:28:28;;;;;;;4.80;3.30;;;;;;;3.98;84.69;98058.09;207420;1316;141850;-71
2022/01/05 13:33:36;;;;;;;3.40;3.10;;;;;;;3.94;84.75;98045.54;207181;1318;140226;-68
2022/01/05 13:38:49;;;;;;;3.50;3.00;;;;;;;3.98;84.85;98042.16;209181;1316;140587;-72
2022/01/05 13:43:58;;;;;;;4.30;3.60;;;;;;;3.99;84.85;98043.55;207257;1316;140354;-71
2022/01/05 13:49:26;;;;;;;4.20;3.90;;;;;;;4.02;84.93;98058.43;206972;1316;140310;-68
2022/01/05 13:54:35;;;;;;;4.00;3.50;;;;;;;3.99;84.50;98076.05;207487;1316;572583;-71
2022/01/05 13:59:45;;;;;;;6.30;5.00;;;;;;;3.91;84.55;98075.31;207362;1316;142928;-72
2022/01/05 14:05:08;;;;;;;9.50;5.80;;;;;;;3.83;84.45;98072.98;208437;1316;142484;-68
2022/01/05 14:10:17;;;;;;;10.80;5.40;;;;;;;3.81;84.67;98099.34;207293;1316;141348;-69
2022/01/05 14:15:26;;;;;;;6.80;5.20;;;;;;;3.80;84.47;98116.35;207172;1316;141009;-69
2022/01/05 14:20:30;;;;;;;;;;;;;;;3.73;84.55;98118.66;207612;1314;140905;-73
2022/01/05 14:25:44;;;;;;;8.10;5.60;;;;;;;3.65;84.55;98134.21;208409;1315;197129;-72
2022/01/05 14:30:56;;;;;;;8.30;5.50;;;;;;;3.60;84.35;98131.35;207474;1316;141106;-70
2022/01/05 14:36:23;;;;;;;13.50;6.30;;;;;;;3.50;84.12;98126.96;208260;1316;140128;-70
2022/01/05 14:41:42;;;;;;;8.10;5.90;;;;;;;3.44;84.15;98123.49;208233;1318;142076;-70
2022/01/05 14:46:51;;;;;;;9.30;6.70;;;;;;;3.36;84.05;98142.42;207435;1316;140534;-70
2022/01/05 14:52:07;;;;;;;;;;;;;;;;;;;;;
2022/01/05 14:57:16;;;;;;;13.70;7.00;;;;;;;3.22;84.06;98166.11;206937;1316;144302;-70
2022/01/05 15:02:22;;;;;;;7.90;6.20;;;;;;;3.16;84.27;98167.70;207402;1317;140434;-72
2022/01/05 15:07:25;;;;;;;11.00;7.90;;;;;;;3.15;84.01;98179.33;207358;1318;142295;-70
2022/01/05 15:12:31;;;;;;;12.20;6.80;;;;;;;3.10;84.17;98191.33;207199;1317;140748;-72
2022/01/05 15:17:38;;;;;;;10.50;7.00;;;;;;;3.03;84.16;98190.70;207712;1316;139823;-69
2022/01/05 15:22:43;;;;;;;17.30;8.90;;;;;;;3.03;84.01;98201.96;207783;1316;140944;-74
2022/01/05 15:27:47;;;;;;;13.70;7.60;;;;;;;2.99;84.08;98192.38;207419;1315;140624;-70
2022/01/05 15:32:50;;;;;;;13.90;6.80;;;;;;;2.92;84.15;98200.15;206945;1318;141454;-72
2022/01/05 15:37:53;;;;;;;10.20;7.10;;;;;;;2.88;84.01;98212.92;208451;1316;141837;-72
2022/01/05 15:42:59;;;;;;;10.60;7.20;;;;;;;2.89;84.11;98225.00;207318;1317;141996;-71
2022/01/05 15:48:04;;;;;;;15.50;6.70;;;;;;;2.85;83.98;98229.04;207060;1316;142482;-69
2022/01/05 15:53:09;;;;;;;9.80;8.00;;;;;;;2.77;83.64;98235.97;208514;1317;139870;-70
2022/01/05 16:03:29;;;;;;;8.10;5.10;;;;;;;2.70;83.96;98253.55;208503;1317;140482;-71
2022/01/05 16:08:32;;;;;;;8.10;4.50;;;;;;;2.71;83.75;98257.20;209296;1316;139666;-73
2022/01/05 16:13:35;;;;;;;13.90;5.80;;;;;;;2.70;83.78;98253.59;209238;1316;141066;-72
2022/01/05 16:18:39;;;;;;;10.30;4.80;;;;;;;2.71;83.45;98256.30;208793;1316;140321;-73
2022/01/05 16:23:43;;;;;;;10.00;4.40;;;;;;;2.67;83.26;98256.66;208350;1316;139498;-70
2022/01/05 16:28:50;;;;;;;7.50;4.50;;;;;;;2.62;83.37;98262.58;207673;1318;140021;-68
2022/01/05 16:33:54;;;;;;;12.80;5.30;;;;;;;2.61;83.09;98271.17;206854;1315;139834;-68
2022/01/05 16:38:57;;;;;;;10.00;5.60;;;;;;;2.63;83.37;98269.73;207578;1316;139869;-68
2022/01/05 16:44:01;;;;;;;15.80;5.60;;;;;;;2.61;83.46;98276.67;207303;1316;141363;-67
2022/01/05 16:49:05;;;;;;;7.60;4.80;;;;;;;2.57;83.15;98269.71;207271;1316;141936;-70
2022/01/05 16:54:13;;;;;;;6.80;5.20;;;;;;;2.54;83.01;98281.36;206986;1316;141076;-68
2022/01/05 17:04:44;;;;;;;9.50;5.70;;;;;;;2.39;83.31;98296.50;207397;1316;139875;-68
2022/01/05 17:09:49;;;;;;;16.70;6.50;;;;;;;2.39;83.26;98297.67;208447;1317;140645;-72
2022/01/05 17:14:53;;;;;;;13.60;6.10;;;;;;;2.41;83.45;98298.46;207386;1316;140493;-70
2022/01/05 17:19:57;;;;;;;8.00;5.10;;;;;;;2.41;83.56;98300.97;207366;1317;140643;-71
2022/01/05 17:25:00;;;;;;;10.90;6.50;;;;;;;2.44;83.31;98299.59;207557;1316;139769;-69
2022/01/05 17:30:06;;;;;;;7.30;4.80;;;;;;;2.42;83.50;98302.33;207311;1316;140739;-68
2022/01/05 17:35:13;;;;;;;9.70;5.40;;;;;;;2.41;83.19;98318.45;207220;1317;140769;-69
2022/01/05 17:40:18;;;;;;;6.30;3.60;;;;;;;2.42;82.98;98318.16;208817;1315;139427;-71
2022/01/05 17:45:21;;;;;;;11.80;6.00;;;;;;;2.40;82.99;98318.70;207984;1315;139636;-68
2022/01/05 17:50:25;;;;;;;9.40;3.90;;;;;;;2.39;83.10;98323.32;207881;1316;139829;-74
2022/01/05 17:55:40;;;;;;;10.50;4.80;;;;;;;2.39;82.92;98322.48;208155;1316;140749;-72
2022/01/05 18:00:44;;;;;;;8.20;3.50;;;;;;;2.34;82.75;98318.34;207434;1316;140091;-72
2022/01/05 18:05:46;;;;;;;8.70;3.30;;;;;;;2.30;82.59;98321.61;207496;1316;139410;-70
2022/01/05 18:10:48;;;;;;;7.10;3.70;;;;;;;2.26;82.61;98318.13;209453;1316;140587;-68
2022/01/05 18:16:03;;;;;;;4.80;3.60;;;;;;;2.22;82.42;98324.90;209274;1316;139981;-68
2022/01/05 18:21:11;;;;;;;7.50;3.90;;;;;;;2.24;82.79;98323.27;208402;1316;140413;-69
2022/01/05 18:26:17;;;;;;;9.60;4.80;;;;;;;2.29;82.87;98324.48;208520;1316;140744;-69
2022/01/05 18:31:21;;;;;;;5.20;4.50;;;;;;;2.28;82.48;98320.93;206913;1316;143370;-68
2022/01/05 18:36:25;;;;;;;12.00;4.20;;;;;;;2.27;82.35;98316.21;208398;1316;139426;-69
2022/01/05 18:41:31;;;;;;;8.90;4.10;;;;;;;2.20;82.38;98322.05;208631;1316;142297;-68
2022/01/05 18:46:36;;;;;;;13.60;4.90;;;;;;;2.16;82.26;98323.91;207738;1316;140976;-67
2022/01/05 18:51:44;;;;;;;4.50;2.50;;;;;;;2.11;82.28;98322.84;207357;1316;141507;-67
2022/01/05 18:56:48;;;;;;;12.20;5.30;;;;;;;2.09;82.39;98326.73;206655;1320;140345;-67
2022/01/05 19:01:52;;;;;;;5.30;4.10;;;;;;;2.05;82.36;98326.68;208598;1316;139276;-66
2022/01/05 19:06:57;;;;;;;8.10;3.50;;;;;;;2.00;82.14;98320.48;207487;1316;139628;-67
2022/01/05 19:12:10;;;;;;;10.90;4.00;;;;;;;1.97;82.18;98314.60;207324;1316;140278;-68
2022/01/05 19:17:13;;;;;;;4.80;3.80;;;;;;;2.01;82.73;98320.36;207088;1316;143194;-73
2022/01/05 19:22:21;;;;;;;7.20;4.70;;;;;;;2.03;82.44;98324.27;206819;1318;142544;-68
2022/01/05 19:27:30;;;;;;;4.00;2.10;;;;;;;2.02;82.60;98328.85;206924;1316;140101;-67
2022/01/05 19:32:33;;;;;;;8.00;5.40;;;;;;;1.98;82.16;98328.27;209112;1316;140986;-69
2022/01/05 19:37:44;;;;;;;6.40;3.90;;;;;;;1.99;81.97;98328.54;207354;1316;141013;-67
2022/01/05 19:42:51;;;;;;;11.70;5.40;;;;;;;1.96;82.19;98331.47;207934;1317;141979;-68
2022/01/05 19:47:54;;;;;;;8.00;3.50;;;;;;;1.95;81.87;98331.64;206969;1318;140825;-68
2022/01/05 19:53:04;;;;;;;7.30;3.50;;;;;;;1.94;81.98;98329.46;206972;1316;141159;-66
2022/01/05 19:58:07;;;;;;;16.60;5.30;;;;;;;1.90;81.77;98329.48;208510;1319;140816;-70
2022/01/05 20:03:18;;;;;;;7.00;3.60;;;;;;;1.92;81.78;98333.55;207874;1316;141450;-69
2022/01/05 20:08:23;;;;;;;5.30;3.40;;;;;;;1.97;81.73;98335.14;208771;1316;142351;-71
2022/01/05 20:13:25;;;;;;;10.40;4.40;;;;;;;1.98;81.61;98340.23;209596;1316;140054;-71
2022/01/05 20:18:28;;;;;;;4.50;2.80;;;;;;;1.99;81.37;98340.06;208603;1316;141233;-71
2022/01/05 20:23:31;;;;;;;5.20;3.70;;;;;;;2.05;81.36;98340.23;209038;1316;141758;-70
2022/01/05 20:28:34;;;;;;;9.70;6.40;;;;;;;2.03;80.92;98342.59;209742;1317;142159;-74
2022/01/05 20:33:42;;;;;;;7.00;3.30;;;;;;;2.02;81.02;98343.16;209149;1316;140208;-72
2022/01/05 20:38:52;;;;;;;7.00;4.00;;;;;;;2.08;80.90;98343.64;207088;1316;145858;-69
2022/01/05 20:43:56;;;;;;;8.50;5.40;;;;;;;2.10;80.57;98343.10;208253;1317;140179;-71
2022/01/05 20:49:02;;;;;;;7.10;4.80;;;;;;;2.10;80.66;98341.77;207472;1316;139975;-68
2022/01/05 20:54:10;;;;;;;19.00;17.20;;;;;;;2.09;80.72;98346.99;207981;1316;139595;-68
2022/01/05 20:59:18;;;;;;;11.40;7.70;;;;;;;2.07;80.74;98337.79;207455;1315;140506;-69
2022/01/05 21:04:25;;;;;;;12.30;5.20;;;;;;;2.05;80.46;98335.13;207145;1318;145071;-67
2022/01/05 21:09:32;;;;;;;4.70;3.80;;;;;;;2.01;80.43;98326.34;207065;1316;140702;-70
2022/01/05 21:14:38;;;;;;;7.40;4.30;;;;;;;1.94;80.29;98331.04;207663;1319;140574;-73
2022/01/05 21:19:41;;;;;;;8.80;3.70;;;;;;;1.89;80.56;98336.80;208002;1316;140466;-71
2022/01/05 21:24:46;;;;;;;7.70;3.90;;;;;;;1.88;80.42;98333.42;207572;1316;140622;-69
2022/01/05 21:29:49;;;;;;;5.90;4.00;;;;;;;1.92;80.49;98333.23;207703;1316;141084;-70
2022/01/05 21:34:53;;;;;;;7.20;4.00;;;;;;;1.92;80.15;98333.64;207377;1316;141915;-73
2022/01/05 21:40:03;;;;;;;5.60;4.30;;;;;;;1.89;80.43;98330.10;208353;1316;141085;-70
2022/01/05 21:45:14;;;;;;;5.80;3.40;;;;;;;1.90;80.07;98329.23;207382;1316;140882;-71
2022/01/05 21:50:17;;;;;;;10.30;4.50;;;;;;;1.93;80.00;98328.70;207598;1318;141073;-69
2022/01/05 21:55:21;;;;;;;8.70;4.30;;;;;;;1.92;80.04;98330.52;205992;1318;1071297;-71
2022/01/05 22:00:27;;;;;;;5.60;3.90;;;;;;;1.91;80.38;98338.78;207402;1318;150217;-74
2022/01/05 22:05:31;;;;;;;8.20;4.10;;;;;;;1.93;80.12;98335.13;207672;1318;141362;-70
2022/01/05 22:10:38;;;;;;;6.40;4.10;;;;;;;1.97;80.34;98336.44;207474;1318;140807;-71
2022/01/05 22:15:41;;;;;;;11.20;4.40;;;;;;;1.99;80.79;98333.15;208620;1319;140529;-67
2022/01/05 22:20:44;;;;;;;12.80;4.90;;;;;;;2.00;80.48;98333.46;209312;1313;139263;-68
2022/01/05 22:25:48;;;;;;;5.20;4.00;;;;;;;2.05;80.51;98339.17;209336;1321;142200;-68
2022/01/05 22:31:02;;;;;;;9.60;4.10;;;;;;;2.09;80.14;98340.48;209556;1316;140269;-74
2022/01/05 22:36:16;;;;;;;6.50;3.70;;;;;;;2.10;80.44;98337.29;209048;1319;139920;-75
2022/01/05 22:41:20;;;;;;;10.00;4.30;;;;;;;2.08;80.62;98339.27;208621;1316;139704;-74
2022/01/05 22:46:24;;;;;;;7.30;3.70;;;;;;;2.09;80.39;98329.23;208414;1316;140653;-70
2022/01/05 22:51:28;;;;;;;5.60;4.00;;;;;;;2.08;80.81;98332.04;207958;1316;140196;-70
2022/01/05 22:56:51;;;;;;;6.90;4.00;;;;;;;2.09;80.89;98332.00;207441;1315;140802;-69
2022/01/05 23:01:54;;;;;;;6.90;4.60;;;;;;;2.11;80.95;98320.66;207587;1316;140407;-69
2022/01/05 23:07:18;;;;;;;7.60;4.10;;;;;;;2.12;81.20;98319.77;208331;1316;141532;-69
2022/01/05 23:12:22;;;;;;;12.90;6.70;;;;;;;2.12;81.36;98322.05;208484;1316;139567;-69
2022/01/05 23:17:26;;;;;;;6.00;3.30;;;;;;;2.13;81.46;98327.98;207894;1315;141295;-69
2022/01/05 23:22:32;;;;;;;8.80;4.20;;;;;;;2.14;81.74;98327.81;207534;1316;139711;-69
2022/01/05 23:27:41;;;;;;;8.90;4.20;;;;;;;2.11;81.80;98321.42;207913;1316;140311;-74
2022/01/05 23:32:46;;;;;;;6.20;3.50;;;;;;;2.11;82.00;98327.09;207352;1316;139773;-67
2022/01/05 23:37:51;;;;;;;4.40;3.70;;;;;;;2.14;81.65;98329.06;207496;1315;140041;-67
2022/01/05 23:42:55;;;;;;;7.70;4.20;;;;;;;2.10;81.79;98329.11;206761;1318;140515;-69
2022/01/05 23:48:03;;;;;;;3.90;3.30;;;;;;;2.07;81.98;98328.52;207006;1316;139494;-71
2022/01/05 23:53:06;;;;;;;6.00;4.10;;;;;;;2.07;82.20;98328.57;207459;1316;140174;-67
2022/01/05 23:58:25;;;;;;;6.70;4.20;;;;;;;2.04;82.10;98331.54;207427;1316;139999;-66
